Time;durP1;ratioP1;P1;durP2;ratioP2;P2;SDS_P1;SDS_P2;PMS_P1;PMS_P2;Temp;Humidity;BMP_temperature;BMP_pressure;BME280_temperature;BME280_humidity;BME280_pressure;Samples;Min_cycle;Max_cycle;Signal;HPM_P1;HPM_P2
2023/02/20 12:11:56;;;;;;;21.75;8.05;;;8.90;99.90;;;;;;5109706;27;20337;-61
2023/02/20 12:14:22;;;;;;;16.77;7.63;;;8.90;99.90;;;;;;5108618;28;20513;-61
2023/02/20 12:17:15;;;;;;;17.92;7.90;;;8.90;99.90;;;;;;5108361;28;20020;-61
2023/02/20 12:19:57;;;;;;;16.63;7.50;;;9.00;99.90;;;;;;5108397;28;20035;-61
2023/02/20 12:22:35;;;;;;;21.90;7.68;;;9.10;99.90;;;;;;5068101;28;20036;-61
2023/02/20 12:25:22;;;;;;;13.50;7.05;;;9.10;99.90;;;;;;5068022;28;20035;-60
2023/02/20 12:28:08;;;;;;;15.00;7.70;;;9.20;99.90;;;;;;5067972;28;20074;-61
2023/02/20 12:31:05;;;;;;;15.27;7.38;;;9.20;99.90;;;;;;5106230;28;20104;-59
2023/02/20 12:33:52;;;;;;;13.25;6.93;;;9.30;99.90;;;;;;5107419;28;20044;-61
2023/02/20 12:36:55;;;;;;;13.90;7.28;;;9.30;99.90;;;;;;5108084;28;20024;-62
2023/02/20 12:39:46;;;;;;;13.65;7.00;;;9.40;99.90;;;;;;5108483;28;20051;-62
2023/02/20 12:42:14;;;;;;;15.55;6.72;;;9.50;99.90;;;;;;5109175;28;20031;-61
2023/02/20 12:45:08;;;;;;;12.57;6.15;;;9.50;99.90;;;;;;5108087;28;20041;-62
2023/02/20 12:47:38;;;;;;;13.40;5.32;;;9.50;99.90;;;;;;5108789;28;20498;-60
2023/02/20 12:50:22;;;;;;;13.00;6.53;;;9.60;99.90;;;;;;5107216;28;20468;-60
2023/02/20 12:53:08;;;;;;;12.25;5.70;;;9.60;99.90;;;;;;5089847;28;20032;-60
2023/02/20 12:55:38;;;;;;;9.50;5.32;;;9.70;99.90;;;;;;5088470;28;20028;-61
2023/02/20 12:58:32;;;;;;;10.23;5.25;;;9.70;99.90;;;;;;5106251;28;20369;-60
2023/02/20 13:01:04;;;;;;;14.65;5.63;;;9.70;99.90;;;;;;5105856;28;20063;-61
2023/02/20 13:04:03;;;;;;;11.35;5.25;;;9.70;99.90;;;;;;5088079;28;20024;-62
2023/02/20 13:06:42;;;;;;;10.98;5.35;;;9.70;99.90;;;;;;5087868;28;20027;-61
2023/02/20 13:09:10;;;;;;;10.15;5.05;;;9.70;99.90;;;;;;5087379;28;20024;-61
2023/02/20 13:11:41;;;;;;;10.55;5.55;;;9.70;99.90;;;;;;5086895;28;20064;-60
2023/02/20 13:14:13;;;;;;;;;;;9.70;99.90;;;;;;5092845;28;20024;-61
2023/02/20 13:16:40;;;;;;;;;;;9.80;99.90;;;;;;5098741;28;19934;-60
2023/02/20 13:19:37;;;;;;;13.73;4.88;;;9.80;99.90;;;;;;5106920;28;19999;-62
2023/02/20 13:22:05;;;;;;;11.77;4.82;;;9.70;99.90;;;;;;5096993;28;20020;-60
2023/02/20 13:24:37;;;;;;;9.95;4.50;;;9.70;99.90;;;;;;5081617;28;20025;-60
2023/02/20 13:27:06;;;;;;;12.13;5.63;;;9.70;99.90;;;;;;5072432;28;20024;-61
2023/02/20 13:29:37;;;;;;;15.48;5.38;;;9.70;99.90;;;;;;5053734;28;20029;-61
2023/02/20 13:32:23;;;;;;;11.35;4.70;;;9.80;99.90;;;;;;5052950;28;20033;-61
2023/02/20 13:34:48;;;;;;;9.98;4.60;;;9.80;99.90;;;;;;5070243;28;20451;-62
2023/02/20 13:37:33;;;;;;;10.95;4.88;;;9.80;99.90;;;;;;5093909;28;20564;-60
2023/02/20 13:40:33;;;;;;;10.98;4.95;;;9.90;99.90;;;;;;5093396;28;20149;-61
2023/02/20 13:43:11;;;;;;;8.97;4.27;;;9.90;99.90;;;;;;5093581;28;20488;-61
2023/02/20 13:45:40;;;;;;;14.23;5.38;;;9.90;99.90;;;;;;5093237;28;20312;-61
2023/02/20 13:48:36;;;;;;;14.07;4.82;;;9.90;99.90;;;;;;5081025;28;20021;-61
2023/02/20 13:51:17;;;;;;;12.45;5.38;;;10.00;99.90;;;;;;5073584;28;20115;-62
2023/02/20 13:54:02;;;;;;;12.45;5.50;;;10.00;99.90;;;;;;5072979;28;20028;-62
2023/02/20 13:56:46;;;;;;;9.70;5.10;;;10.00;99.90;;;;;;5073571;28;20031;-62
2023/02/20 13:59:16;;;;;;;11.95;5.50;;;9.90;99.90;;;;;;5086906;28;20042;-61
2023/02/20 14:02:04;;;;;;;9.82;5.55;;;9.90;99.90;;;;;;5089193;28;20035;-61
2023/02/20 14:04:31;;;;;;;11.98;5.47;;;9.90;99.90;;;;;;5072114;28;20032;-63
2023/02/20 14:06:57;;;;;;;12.23;6.32;;;9.90;99.90;;;;;;5085718;28;20460;-61
2023/02/20 14:09:30;;;;;;;10.43;5.15;;;9.90;99.90;;;;;;5092799;28;20154;-61
2023/02/20 14:12:12;;;;;;;13.13;5.63;;;9.80;99.90;;;;;;5093383;28;20110;-61
2023/02/20 14:14:42;;;;;;;14.50;5.57;;;9.90;99.90;;;;;;5092785;28;20020;-62
2023/02/20 14:17:18;;;;;;;11.83;5.07;;;9.90;99.90;;;;;;5093360;28;20491;-61
2023/02/20 14:19:46;;;;;;;13.07;5.53;;;9.90;99.90;;;;;;5092929;28;20630;-61
2023/02/20 14:22:13;;;;;;;12.40;6.25;;;9.90;99.90;;;;;;5092676;28;20035;-62
2023/02/20 14:24:39;;;;;;;13.25;6.32;;;9.90;99.90;;;;;;5094040;28;20365;-62
2023/02/20 14:27:25;;;;;;;10.32;5.68;;;9.90;99.90;;;;;;5093130;28;20476;-61
2023/02/20 14:30:22;;;;;;;16.05;6.55;;;9.90;99.90;;;;;;5092124;28;20028;-61
2023/02/20 14:32:54;;;;;;;11.52;5.38;;;9.90;99.90;;;;;;5092624;28;20464;-61
2023/02/20 14:35:46;;;;;;;12.73;6.50;;;9.90;99.90;;;;;;5092054;28;20027;-61
2023/02/20 14:38:31;;;;;;;11.95;6.47;;;9.90;99.90;;;;;;5093311;28;20046;-61
2023/02/20 14:40:57;;;;;;;11.32;5.68;;;9.90;99.90;;;;;;5091058;28;20023;-62
2023/02/20 14:43:26;;;;;;;10.63;5.65;;;9.90;99.90;;;;;;5092384;28;20031;-62
2023/02/20 14:46:06;;;;;;;10.50;5.13;;;9.90;99.90;;;;;;5092919;28;20742;-62
2023/02/20 14:48:37;;;;;;;15.70;6.40;;;9.90;99.90;;;;;;5092660;28;20119;-60
2023/02/20 14:51:23;;;;;;;11.15;5.95;;;9.90;99.90;;;;;;5092352;28;20043;-61
2023/02/20 14:54:23;;;;;;;15.35;6.57;;;9.90;99.90;;;;;;5092212;28;20110;-60
2023/02/20 14:56:52;;;;;;;18.48;6.90;;;9.80;99.90;;;;;;5069254;28;20147;-61
2023/02/20 14:59:33;;;;;;;12.18;6.15;;;9.80;99.90;;;;;;5092768;28;20028;-60
2023/02/20 15:02:05;;;;;;;13.38;6.70;;;9.80;99.90;;;;;;5086060;28;20103;-60
2023/02/20 15:04:30;;;;;;;13.35;5.68;;;9.80;99.90;;;;;;5072005;28;20046;-61
2023/02/20 15:07:05;;;;;;;15.45;5.65;;;9.80;99.90;;;;;;5071931;28;20473;-60
2023/02/20 15:09:40;;;;;;;11.65;6.05;;;9.80;99.90;;;;;;5071681;28;20032;-60
2023/02/20 15:12:17;;;;;;;13.88;5.60;;;9.80;99.90;;;;;;5071909;28;20056;-61
2023/02/20 15:14:43;;;;;;;13.85;6.25;;;9.80;99.90;;;;;;5077630;28;20038;-60
2023/02/20 15:17:26;;;;;;;17.30;6.68;;;9.80;99.90;;;;;;5091866;28;20020;-61
2023/02/20 15:19:52;;;;;;;15.75;6.47;;;9.80;99.90;;;;;;5092005;28;20020;-61
2023/02/20 15:22:36;;;;;;;12.15;6.03;;;9.80;99.90;;;;;;5092451;28;20043;-61
2023/02/20 15:25:29;;;;;;;13.98;6.90;;;9.80;99.90;;;;;;5091808;28;20028;-61
2023/02/20 15:28:06;;;;;;;10.40;5.80;;;9.80;99.90;;;;;;5091850;28;20044;-61
2023/02/20 15:30:32;;;;;;;15.45;6.80;;;9.80;99.90;;;;;;5091862;28;20051;-62
2023/02/20 15:32:58;;;;;;;15.77;6.57;;;9.70;99.90;;;;;;5090856;28;20028;-61
2023/02/20 15:35:25;;;;;;;12.52;5.90;;;9.70;99.90;;;;;;5092251;28;20028;-61
2023/02/20 15:37:56;;;;;;;11.75;6.15;;;9.70;99.90;;;;;;5092094;28;20077;-61
2023/02/20 15:40:28;;;;;;;13.07;6.78;;;9.70;99.90;;;;;;5091620;28;20032;-61
2023/02/20 15:42:58;;;;;;;15.77;7.88;;;9.70;99.90;;;;;;5092103;28;20016;-61
2023/02/20 15:45:29;;;;;;;13.10;6.72;;;9.70;99.90;;;;;;5090709;28;20035;-62
2023/02/20 15:47:55;;;;;;;13.43;6.10;;;9.70;99.90;;;;;;5092029;28;20089;-61
2023/02/20 15:50:20;;;;;;;16.52;7.85;;;9.70;99.90;;;;;;5091702;28;20078;-61
2023/02/20 15:52:47;;;;;;;14.07;7.70;;;9.60;99.90;;;;;;5076309;28;20056;-61
2023/02/20 15:55:16;;;;;;;13.15;6.40;;;9.60;99.90;;;;;;5071890;28;20024;-61
2023/02/20 15:57:43;;;;;;;14.60;6.00;;;9.60;99.90;;;;;;5070219;28;20027;-62
2023/02/20 16:00:21;;;;;;;13.73;6.97;;;9.60;99.90;;;;;;5086643;28;20116;-61
2023/02/20 16:02:47;;;;;;;14.95;6.05;;;9.60;99.90;;;;;;5079007;28;20017;-61
2023/02/20 16:05:13;;;;;;;13.40;7.20;;;9.60;99.90;;;;;;5071975;28;20028;-62
2023/02/20 16:07:38;;;;;;;13.95;7.00;;;9.60;99.90;;;;;;5070875;28;20433;-61
2023/02/20 16:10:04;;;;;;;12.18;6.55;;;9.50;99.90;;;;;;5071144;28;20413;-62
2023/02/20 16:12:32;;;;;;;16.70;7.07;;;9.50;99.90;;;;;;5071957;28;20070;-61
2023/02/20 16:14:59;;;;;;;15.80;6.53;;;9.50;99.90;;;;;;5085608;28;20020;-62
2023/02/20 16:17:28;;;;;;;12.00;6.78;;;9.50;99.90;;;;;;5091178;28;20157;-62
2023/02/20 16:19:54;;;;;;;13.35;6.53;;;9.50;99.90;;;;;;5090767;28;20024;-61
2023/02/20 16:22:20;;;;;;;15.77;6.97;;;9.50;99.90;;;;;;5090909;28;20036;-61
2023/02/20 16:24:47;;;;;;;12.93;6.85;;;9.50;99.90;;;;;;5091584;28;20062;-60
2023/02/20 16:27:25;;;;;;;12.48;6.35;;;9.50;99.90;;;;;;5091663;28;20030;-61
2023/02/20 16:29:53;;;;;;;14.20;6.25;;;9.40;99.90;;;;;;5086641;28;20043;-61
2023/02/20 16:32:22;;;;;;;12.48;6.40;;;9.40;99.90;;;;;;5071210;28;20024;-61
2023/02/20 16:34:48;;;;;;;18.10;8.02;;;9.40;99.90;;;;;;5070570;28;20021;-60
2023/02/20 16:37:14;;;;;;;14.75;6.50;;;9.40;99.90;;;;;;5077079;28;20020;-61
2023/02/20 16:39:41;;;;;;;13.45;6.88;;;9.40;99.90;;;;;;5090704;28;20091;-61
2023/02/20 16:42:21;;;;;;;15.23;6.45;;;9.40;99.90;;;;;;5089636;28;20429;-60
2023/02/20 16:44:48;;;;;;;15.50;7.55;;;9.40;99.90;;;;;;5091068;28;20098;-61
2023/02/20 16:47:29;;;;;;;14.35;8.05;;;9.40;99.90;;;;;;5089655;28;20028;-60
2023/02/20 16:50:00;;;;;;;15.15;7.28;;;9.30;99.90;;;;;;5089755;28;20036;-61
2023/02/20 16:52:44;;;;;;;17.02;7.47;;;9.30;99.90;;;;;;5089559;28;20035;-60
2023/02/20 16:55:20;;;;;;;15.73;7.22;;;9.30;99.90;;;;;;5091237;28;20021;-59
2023/02/20 16:57:45;;;;;;;13.23;6.90;;;9.30;99.90;;;;;;5092347;28;20032;-60
2023/02/20 17:00:16;;;;;;;16.95;7.50;;;9.20;99.90;;;;;;5094398;28;20020;-60
2023/02/20 17:02:42;;;;;;;12.43;7.07;;;9.30;99.90;;;;;;5082143;28;20110;-60
2023/02/20 17:05:08;;;;;;;11.75;6.70;;;9.20;99.90;;;;;;5073359;28;20037;-60
2023/02/20 17:07:33;;;;;;;15.70;8.70;;;9.20;99.90;;;;;;5091136;28;20115;-60
2023/02/20 17:09:59;;;;;;;19.00;7.60;;;9.30;99.90;;;;;;5093569;28;20083;-59
2023/02/20 17:12:25;;;;;;;17.13;7.75;;;9.20;99.90;;;;;;5093791;28;20086;-60
2023/02/20 17:14:52;;;;;;;15.07;7.45;;;9.20;99.90;;;;;;5092669;28;20024;-60
2023/02/20 17:17:18;;;;;;;18.45;6.90;;;9.20;99.90;;;;;;5093565;28;20545;-60
2023/02/20 17:19:44;;;;;;;15.80;6.85;;;9.20;99.90;;;;;;5093228;28;20028;-59
2023/02/20 17:22:11;;;;;;;15.45;7.05;;;9.20;99.90;;;;;;5093992;28;20024;-60
2023/02/20 17:24:41;;;;;;;17.30;8.30;;;9.20;99.90;;;;;;5093172;28;20377;-60
2023/02/20 17:27:09;;;;;;;18.33;8.40;;;9.20;99.90;;;;;;5094060;28;20422;-61
2023/02/20 17:29:34;;;;;;;15.27;7.95;;;9.20;99.90;;;;;;5093617;28;20047;-61
2023/02/20 17:32:00;;;;;;;14.85;8.50;;;9.30;99.90;;;;;;5093030;28;20477;-61
2023/02/20 17:34:26;;;;;;;15.52;8.45;;;9.20;99.90;;;;;;5090690;28;20378;-60
2023/02/20 17:36:51;;;;;;;17.63;8.90;;;9.20;99.90;;;;;;5084200;28;20029;-61
2023/02/20 17:39:20;;;;;;;15.13;7.95;;;9.20;99.90;;;;;;5092680;28;20091;-61
2023/02/20 17:41:48;;;;;;;17.67;8.30;;;9.20;99.90;;;;;;5093788;28;20024;-60
2023/02/20 17:44:23;;;;;;;14.98;7.82;;;9.20;99.90;;;;;;5094260;28;20062;-61
2023/02/20 17:46:50;;;;;;;20.73;8.82;;;9.20;99.90;;;;;;5093244;28;20107;-60
2023/02/20 17:49:17;;;;;;;14.90;8.00;;;9.20;99.90;;;;;;5093307;28;20586;-61
2023/02/20 17:51:43;;;;;;;18.13;8.88;;;9.20;99.90;;;;;;5093232;28;20073;-60
2023/02/20 17:54:09;;;;;;;18.92;9.30;;;9.20;99.90;;;;;;5093109;28;20016;-62
2023/02/20 17:56:43;;;;;;;18.25;9.35;;;9.20;99.90;;;;;;5093416;28;20020;-61
2023/02/20 17:59:09;;;;;;;18.60;8.02;;;9.20;99.90;;;;;;5092598;28;20024;-60
2023/02/20 18:01:35;;;;;;;20.35;10.00;;;9.20;99.90;;;;;;5090561;28;20024;-60
2023/02/20 18:04:03;;;;;;;19.88;10.18;;;9.20;99.90;;;;;;5072974;28;20040;-60
2023/02/20 18:06:29;;;;;;;20.13;10.20;;;9.20;99.90;;;;;;5072658;28;20029;-61
2023/02/20 18:08:54;;;;;;;21.02;10.55;;;9.20;99.90;;;;;;5072195;28;20126;-60
2023/02/20 18:11:20;;;;;;;18.17;10.82;;;9.20;99.90;;;;;;5083879;28;20054;-59
2023/02/20 18:13:46;;;;;;;19.55;9.88;;;9.20;99.90;;;;;;5092692;28;20491;-61
2023/02/20 18:16:12;;;;;;;18.90;9.75;;;9.20;99.90;;;;;;5093301;28;20093;-62
2023/02/20 18:18:38;;;;;;;18.23;9.98;;;9.20;99.90;;;;;;5091387;28;20565;-61
2023/02/20 18:21:04;;;;;;;21.25;11.57;;;9.20;99.90;;;;;;5091614;28;20054;-62
2023/02/20 18:23:30;;;;;;;22.02;11.00;;;9.20;99.90;;;;;;5093010;28;20020;-62
2023/02/20 18:25:55;;;;;;;22.10;10.40;;;9.20;99.90;;;;;;5091202;28;20168;-61
2023/02/20 18:28:21;;;;;;;27.13;12.35;;;9.20;99.90;;;;;;5092254;28;20031;-60
2023/02/20 18:30:47;;;;;;;23.20;11.55;;;9.10;99.90;;;;;;5092046;28;20032;-61
2023/02/20 18:33:13;;;;;;;26.75;12.23;;;9.10;99.90;;;;;;5085660;28;20035;-60
2023/02/20 18:35:38;;;;;;;27.48;13.68;;;9.10;99.90;;;;;;5072448;28;20454;-61
2023/02/20 18:38:04;;;;;;;32.05;14.82;;;9.00;99.90;;;;;;5091041;28;20028;-60
2023/02/20 18:40:30;;;;;;;35.85;14.90;;;9.10;99.90;;;;;;5081914;28;20024;-59
2023/02/20 18:42:56;;;;;;;27.80;13.57;;;9.00;99.90;;;;;;5071766;28;20031;-61
2023/02/20 18:45:22;;;;;;;27.23;14.90;;;9.10;99.90;;;;;;5086520;28;20092;-61
2023/02/20 18:47:49;;;;;;;26.45;13.73;;;9.00;99.90;;;;;;5092894;28;20013;-61
2023/02/20 18:50:15;;;;;;;30.95;15.38;;;9.10;99.90;;;;;;5091943;28;20039;-62
2023/02/20 18:52:44;;;;;;;32.28;14.60;;;9.10;99.90;;;;;;5092124;28;20062;-61
2023/02/20 18:55:16;;;;;;;35.20;16.45;;;9.00;99.90;;;;;;5092231;28;20020;-61
2023/02/20 18:57:48;;;;;;;32.40;15.93;;;9.00;99.90;;;;;;5091186;28;20055;-60
2023/02/20 19:00:17;;;;;;;30.30;15.48;;;9.00;99.90;;;;;;5091759;28;20035;-60
2023/02/20 19:02:42;;;;;;;29.15;14.77;;;9.00;99.90;;;;;;5079217;28;20554;-60
2023/02/20 19:05:09;;;;;;;27.80;15.13;;;9.10;99.90;;;;;;5077445;28;20043;-60
2023/02/20 19:07:34;;;;;;;31.27;15.80;;;9.10;99.90;;;;;;5092390;28;20058;-61
2023/02/20 19:10:01;;;;;;;30.92;14.40;;;9.10;99.90;;;;;;5090522;28;20135;-59
2023/02/20 19:12:26;;;;;;;34.35;15.23;;;9.10;99.90;;;;;;5092161;28;20090;-61
2023/02/20 19:14:52;;;;;;;37.03;17.63;;;9.10;99.90;;;;;;5092147;28;20503;-61
2023/02/20 19:17:19;;;;;;;35.97;16.52;;;9.10;99.90;;;;;;5091789;28;20060;-60
2023/02/20 19:19:46;;;;;;;35.13;16.70;;;9.10;99.90;;;;;;5091005;28;20374;-60
2023/02/20 19:22:11;;;;;;;34.47;16.13;;;9.20;99.90;;;;;;5092340;28;20031;-60
2023/02/20 19:24:39;;;;;;;36.67;16.90;;;9.20;99.90;;;;;;5091128;28;20099;-60
2023/02/20 19:27:05;;;;;;;34.17;17.15;;;9.10;99.90;;;;;;5091574;28;20016;-60
2023/02/20 19:29:31;;;;;;;35.70;17.38;;;9.10;99.90;;;;;;5091702;28;20096;-60
2023/02/20 19:31:58;;;;;;;38.35;18.67;;;9.10;99.90;;;;;;5090607;28;20082;-60
2023/02/20 19:34:24;;;;;;;40.60;20.08;;;9.10;99.90;;;;;;5091974;28;20027;-60
2023/02/20 19:36:50;;;;;;;37.85;18.33;;;9.10;99.90;;;;;;5091698;28;20024;-61
2023/02/20 19:39:15;;;;;;;39.83;19.65;;;9.10;99.90;;;;;;5091012;28;20077;-60
2023/02/20 19:41:41;;;;;;;34.95;18.02;;;9.10;99.90;;;;;;5091961;28;20028;-60
2023/02/20 19:44:09;;;;;;;44.60;20.92;;;9.10;99.90;;;;;;5091779;28;20024;-60
